createdAt,value
2018-07-06T00:02:38.126Z,6.43
2018-07-06T00:05:17.816Z,6.00
2018-07-06T00:07:57.413Z,6.63
2018-07-06T00:10:37.231Z,7.07
2018-07-06T00:13:16.941Z,5.50
2018-07-06T00:15:56.747Z,10.47
2018-07-06T00:18:36.540Z,5.50
2018-07-06T00:21:16.279Z,6.37
2018-07-06T00:23:56.093Z,6.00
2018-07-06T00:26:35.960Z,7.80
2018-07-06T00:29:15.604Z,11.00
2018-07-06T00:31:55.548Z,7.30
2018-07-06T00:34:35.232Z,9.80
2018-07-06T00:37:15.023Z,7.10
2018-07-06T00:39:54.821Z,6.30
2018-07-06T00:42:34.817Z,6.07
2018-07-06T00:45:14.545Z,7.03
2018-07-06T00:47:54.612Z,6.10
2018-07-06T00:50:34.443Z,8.30
2018-07-06T00:53:14.206Z,6.53
2018-07-06T00:55:53.960Z,5.97
2018-07-06T00:58:33.901Z,7.30
2018-07-06T01:01:13.520Z,6.70
2018-07-06T01:03:53.252Z,11.70
2018-07-06T01:06:33.063Z,6.53
2018-07-06T01:09:12.673Z,7.20
2018-07-06T01:11:52.269Z,8.10
2018-07-06T01:14:32.052Z,6.67
2018-07-06T01:17:15.931Z,8.73
2018-07-06T01:19:56.701Z,7.30
2018-07-06T01:22:36.577Z,7.77
2018-07-06T01:25:16.264Z,6.47
2018-07-06T01:27:56.092Z,8.13
2018-07-06T01:30:35.861Z,6.83
2018-07-06T01:33:15.645Z,8.50
2018-07-06T01:35:55.544Z,8.43
2018-07-06T01:38:35.112Z,8.70
2018-07-06T01:41:15.024Z,8.20
2018-07-06T01:43:54.860Z,8.33
2018-07-06T01:46:34.747Z,8.50
2018-07-06T01:49:14.601Z,8.10
2018-07-06T01:51:54.620Z,8.23
2018-07-06T01:54:34.240Z,8.77
2018-07-06T01:57:13.897Z,6.70
2018-07-06T01:59:53.633Z,12.77
2018-07-06T02:02:33.180Z,10.43
2018-07-06T02:05:12.917Z,10.13
2018-07-06T02:07:52.679Z,8.37
2018-07-06T02:10:32.376Z,10.93
2018-07-06T02:13:12.376Z,8.53
2018-07-06T02:15:52.072Z,9.27
2018-07-06T02:18:31.956Z,9.73
2018-07-06T02:21:11.664Z,10.20
2018-07-06T02:23:51.444Z,12.80
2018-07-06T02:26:31.257Z,13.30
2018-07-06T02:29:10.844Z,13.50
2018-07-06T02:31:50.596Z,12.03
2018-07-06T02:34:30.425Z,13.03
2018-07-06T02:37:10.273Z,16.23
2018-07-06T02:39:49.915Z,14.53
2018-07-06T02:42:29.647Z,14.80
2018-07-06T02:45:09.496Z,16.83
2018-07-06T02:47:49.200Z,14.20
2018-07-06T02:50:29.207Z,12.33
2018-07-06T02:53:09.112Z,14.83
2018-07-06T02:55:48.929Z,16.63
2018-07-06T02:58:28.701Z,16.87
2018-07-06T03:01:08.264Z,16.07
2018-07-06T03:03:47.996Z,17.60
2018-07-06T03:06:27.871Z,15.50
2018-07-06T03:09:07.925Z,19.40
2018-07-06T03:11:47.576Z,15.97
2018-07-06T03:14:27.220Z,15.40
2018-07-06T03:17:06.971Z,15.43
2018-07-06T03:19:46.480Z,16.90
2018-07-06T03:22:26.267Z,14.50
2018-07-06T03:25:05.948Z,16.17
2018-07-06T03:27:45.402Z,17.20
2018-07-06T03:30:25.232Z,16.37
2018-07-06T03:33:04.988Z,20.13
2018-07-06T03:35:44.638Z,14.87
2018-07-06T03:38:24.404Z,17.43
2018-07-06T03:41:04.051Z,18.37
2018-07-06T03:43:43.775Z,18.63
2018-07-06T03:46:23.353Z,16.77
2018-07-06T03:49:03.063Z,19.77
2018-07-06T03:51:42.807Z,17.03
2018-07-06T03:54:22.719Z,18.53
2018-07-06T03:57:02.810Z,17.50
2018-07-06T03:59:42.563Z,16.27
2018-07-06T04:02:23.063Z,17.67
2018-07-06T04:05:02.788Z,14.30
2018-07-06T04:07:42.684Z,15.13
2018-07-06T04:10:22.445Z,17.23
2018-07-06T04:13:02.268Z,16.20
2018-07-06T04:15:42.025Z,19.40
2018-07-06T04:18:21.888Z,15.90
2018-07-06T04:21:01.601Z,16.40
2018-07-06T04:23:41.469Z,16.00
2018-07-06T04:26:21.160Z,16.20
2018-07-06T04:29:00.983Z,18.30
2018-07-06T04:31:40.761Z,13.27
2018-07-06T04:34:20.372Z,16.63
2018-07-06T04:36:59.968Z,20.93
2018-07-06T04:39:39.790Z,15.00
2018-07-06T04:42:19.652Z,14.80
2018-07-06T04:44:59.309Z,18.10
2018-07-06T04:47:39.040Z,17.27
2018-07-06T04:50:18.788Z,16.40
2018-07-06T04:52:58.548Z,19.10
2018-07-06T04:55:38.415Z,15.47
2018-07-06T04:58:18.006Z,18.50
2018-07-06T05:00:57.745Z,18.77
2018-07-06T05:03:37.543Z,14.30
2018-07-06T05:06:17.180Z,20.90
2018-07-06T05:08:57.024Z,19.47
2018-07-06T05:11:36.809Z,19.37
2018-07-06T05:14:16.574Z,18.87
2018-07-06T05:16:56.677Z,18.67
2018-07-06T05:19:36.364Z,20.20
2018-07-06T05:22:16.145Z,17.43
2018-07-06T05:24:55.918Z,18.87
2018-07-06T05:27:35.529Z,26.83
2018-07-06T05:30:15.404Z,22.00
2018-07-06T05:32:55.336Z,21.90
2018-07-06T05:35:35.120Z,23.33
2018-07-06T05:38:15.135Z,18.53
2018-07-06T05:40:54.879Z,22.77
2018-07-06T05:43:34.781Z,21.07
2018-07-06T05:46:14.565Z,23.80
2018-07-06T05:48:54.558Z,23.50
2018-07-06T05:51:34.289Z,23.13
2018-07-06T05:54:14.009Z,21.27
2018-07-06T05:56:53.864Z,21.47
2018-07-06T05:59:33.488Z,24.87
2018-07-06T06:02:13.205Z,22.93
2018-07-06T06:04:52.996Z,22.07
2018-07-06T06:07:23.285Z,23.80
2018-07-06T06:09:51.967Z,22.07
2018-07-06T06:12:20.688Z,23.80
2018-07-06T06:14:49.772Z,24.33
2018-07-06T06:17:18.169Z,21.53
2018-07-06T06:19:46.560Z,21.50
2018-07-06T06:22:14.970Z,24.47
2018-07-06T06:24:43.709Z,28.93
2018-07-06T06:27:12.191Z,23.03
2018-07-06T06:29:40.668Z,31.30
2018-07-06T06:32:09.576Z,23.90
2018-07-06T06:34:38.036Z,24.30
2018-07-06T06:37:06.460Z,24.77
2018-07-06T06:39:34.939Z,25.60
2018-07-06T06:42:03.569Z,34.00
2018-07-06T06:44:32.061Z,27.37
2018-07-06T06:47:00.816Z,23.60
2018-07-06T06:49:30.725Z,26.40
2018-07-06T06:51:59.540Z,21.87
2018-07-06T06:54:28.191Z,25.13
2018-07-06T06:56:56.660Z,27.93
2018-07-06T06:59:25.551Z,29.53
2018-07-06T07:01:53.979Z,25.73
2018-07-06T07:04:22.657Z,28.53
2018-07-06T07:06:51.232Z,22.67
2018-07-06T07:09:19.712Z,21.90
2018-07-06T07:11:48.416Z,22.93
2018-07-06T07:14:17.008Z,22.90
2018-07-06T07:16:45.392Z,27.40
2018-07-06T07:19:13.863Z,23.77
2018-07-06T07:21:42.249Z,19.67
2018-07-06T07:24:10.750Z,20.00
2018-07-06T07:26:39.185Z,25.10
2018-07-06T07:29:07.780Z,23.20
2018-07-06T07:31:36.227Z,21.90
2018-07-06T07:34:04.682Z,18.50
2018-07-06T07:36:33.169Z,21.07
2018-07-06T07:39:01.674Z,16.60
2018-07-06T07:41:30.090Z,19.00
2018-07-06T07:43:58.529Z,17.87
2018-07-06T07:46:27.013Z,16.57
2018-07-06T07:48:55.372Z,16.67
2018-07-06T07:52:02.780Z,15.80
2018-07-06T07:54:39.676Z,15.00
2018-07-06T07:57:08.613Z,15.60
2018-07-06T07:59:37.158Z,17.00
2018-07-06T08:02:05.612Z,17.60
2018-07-06T08:04:34.070Z,17.63
2018-07-06T08:07:02.809Z,18.83
2018-07-06T08:09:31.700Z,18.70
2018-07-06T08:12:01.369Z,18.50
2018-07-06T08:14:29.854Z,15.50
2018-07-06T08:16:58.248Z,17.87
2018-07-06T08:19:26.669Z,27.57
2018-07-06T08:21:55.691Z,17.70
2018-07-06T08:24:24.141Z,23.10
2018-07-06T08:26:52.846Z,16.93
2018-07-06T08:29:21.281Z,19.03
2018-07-06T08:31:49.694Z,20.60
2018-07-06T08:34:29.564Z,20.20
2018-07-06T08:37:36.881Z,19.37
2018-07-06T08:40:05.356Z,18.43
2018-07-06T08:42:34.841Z,18.90
2018-07-06T08:45:03.740Z,22.70
2018-07-06T08:47:32.252Z,19.20
2018-07-06T08:50:01.401Z,18.73
2018-07-06T08:52:30.098Z,19.97
2018-07-06T08:54:58.496Z,19.40
2018-07-06T08:57:28.294Z,18.17
2018-07-06T08:59:56.733Z,17.87
2018-07-06T09:02:25.573Z,17.13
2018-07-06T09:04:55.067Z,18.50
2018-07-06T09:07:23.841Z,16.77
2018-07-06T09:09:52.792Z,15.40
2018-07-06T09:12:21.260Z,23.00
2018-07-06T09:14:49.697Z,21.00
2018-07-06T09:17:19.100Z,20.87
2018-07-06T09:19:48.027Z,20.30
2018-07-06T09:22:17.401Z,16.07
2018-07-06T09:24:46.785Z,18.83
2018-07-06T09:27:15.330Z,15.27
2018-07-06T09:29:43.728Z,14.80
2018-07-06T09:32:12.164Z,16.60
2018-07-06T09:34:40.919Z,18.70
2018-07-06T09:37:09.725Z,19.97
2018-07-06T09:39:38.888Z,14.53
2018-07-06T09:42:07.357Z,16.90
2018-07-06T09:44:35.809Z,13.97
2018-07-06T09:47:04.324Z,14.07
2018-07-06T09:49:32.861Z,15.87
2018-07-06T09:52:01.305Z,13.60
2018-07-06T09:54:29.732Z,12.43
2018-07-06T09:56:58.473Z,15.50
2018-07-06T09:59:26.942Z,12.90
2018-07-06T10:01:55.380Z,15.70
2018-07-06T10:04:23.798Z,14.07
2018-07-06T10:06:52.244Z,13.50
2018-07-06T10:09:20.649Z,14.80
2018-07-06T10:11:49.274Z,17.33
2018-07-06T10:14:17.676Z,17.90
2018-07-06T10:16:46.153Z,13.53
2018-07-06T10:19:14.808Z,14.70
2018-07-06T10:21:43.228Z,11.97
2018-07-06T10:24:11.664Z,13.57
2018-07-06T10:26:40.084Z,13.97
2018-07-06T10:29:21.758Z,14.60
2018-07-06T10:32:21.377Z,12.80
2018-07-06T10:34:49.792Z,13.30
2018-07-06T10:37:18.997Z,12.97
2018-07-06T10:39:48.109Z,12.50
2018-07-06T10:42:16.569Z,11.87
2018-07-06T10:44:45.249Z,11.73
2018-07-06T10:47:13.711Z,11.70
2018-07-06T10:49:42.214Z,17.33
2018-07-06T10:52:11.453Z,16.83
2018-07-06T10:54:40.529Z,9.40
2018-07-06T10:57:09.188Z,10.07
2018-07-06T10:59:37.908Z,12.57
2018-07-06T11:02:06.634Z,15.07
2018-07-06T11:04:35.247Z,14.00
2018-07-06T11:07:03.658Z,8.80
2018-07-06T11:09:32.079Z,11.07
2018-07-06T11:12:00.501Z,11.47
2018-07-06T11:14:28.895Z,15.87
2018-07-06T11:16:57.283Z,14.53
2018-07-06T11:19:25.439Z,12.90
2018-07-06T11:21:53.911Z,13.03
2018-07-06T11:24:22.315Z,19.93
2018-07-06T11:26:50.748Z,11.93
2018-07-06T11:29:19.980Z,14.00
2018-07-06T11:31:48.517Z,10.87
2018-07-06T11:34:16.908Z,11.27
2018-07-06T11:36:45.376Z,14.33
2018-07-06T11:39:14.011Z,16.10
2018-07-06T11:41:42.510Z,10.53
2018-07-06T11:44:10.929Z,10.40
2018-07-06T11:46:39.368Z,9.60
2018-07-06T11:49:07.824Z,12.33
2018-07-06T11:51:36.255Z,12.43
2018-07-06T11:54:04.702Z,10.53
2018-07-06T11:56:33.141Z,14.10
2018-07-06T11:59:01.552Z,10.30
2018-07-06T12:01:30.105Z,12.20
2018-07-06T12:03:58.560Z,9.93
2018-07-06T12:06:26.908Z,13.13
2018-07-06T12:08:55.377Z,12.50
2018-07-06T12:11:23.777Z,11.07
2018-07-06T12:13:52.360Z,11.00
2018-07-06T12:16:20.753Z,9.87
2018-07-06T12:18:49.171Z,9.10
2018-07-06T12:21:17.772Z,18.27
2018-07-06T12:23:46.183Z,13.30
2018-07-06T12:26:14.573Z,12.63
2018-07-06T12:28:43.013Z,10.67
2018-07-06T12:31:11.424Z,11.67
2018-07-06T12:33:39.850Z,12.23
2018-07-06T12:36:08.350Z,9.00
2018-07-06T12:38:36.784Z,10.63
2018-07-06T12:41:05.411Z,10.50
2018-07-06T12:43:33.472Z,10.63
2018-07-06T12:46:01.920Z,7.33
2018-07-06T12:48:30.381Z,10.57
2018-07-06T12:50:58.808Z,9.60
2018-07-06T12:53:27.376Z,12.40
2018-07-06T12:55:55.845Z,10.40
2018-07-06T12:58:24.308Z,12.90
2018-07-06T13:00:53.056Z,8.20
2018-07-06T13:03:21.683Z,8.63
2018-07-06T13:05:50.167Z,10.60
2018-07-06T13:08:18.772Z,12.93
2018-07-06T13:10:47.220Z,15.73
2018-07-06T13:13:15.658Z,9.90
2018-07-06T13:15:44.237Z,8.80
2018-07-06T13:18:12.355Z,11.30
2018-07-06T13:20:40.772Z,12.30
2018-07-06T13:23:09.314Z,9.20
2018-07-06T13:25:37.709Z,9.40
2018-07-06T13:28:06.702Z,9.80
2018-07-06T13:30:35.231Z,10.20
2018-07-06T13:33:03.404Z,13.50
2018-07-06T13:35:31.828Z,10.57
2018-07-06T13:38:00.227Z,9.80
2018-07-06T13:40:28.690Z,8.67
2018-07-06T13:42:57.093Z,14.03
2018-07-06T13:45:25.624Z,10.90
2018-07-06T13:47:54.049Z,11.43
2018-07-06T13:50:22.633Z,9.53
2018-07-06T13:52:51.044Z,8.83
2018-07-06T13:55:19.452Z,12.80
2018-07-06T13:57:47.973Z,9.43
2018-07-06T14:00:16.386Z,11.70
2018-07-06T14:02:44.798Z,10.50
2018-07-06T14:05:13.274Z,16.40
2018-07-06T14:07:41.771Z,10.20
2018-07-06T14:10:10.468Z,11.20
2018-07-06T14:12:38.894Z,10.90
2018-07-06T14:15:07.301Z,7.40
2018-07-06T14:17:35.902Z,7.63
2018-07-06T14:20:04.342Z,15.13
2018-07-06T14:22:32.997Z,9.87
2018-07-06T14:25:01.407Z,8.80
2018-07-06T14:27:29.841Z,6.70
2018-07-06T14:29:58.267Z,8.90
2018-07-06T14:32:26.668Z,8.70
2018-07-06T14:34:55.387Z,9.20
2018-07-06T14:37:23.829Z,9.53
2018-07-06T14:39:52.226Z,8.20
2018-07-06T14:42:20.641Z,14.27
2018-07-06T14:44:49.021Z,6.00
2018-07-06T14:47:17.738Z,8.60
2018-07-06T14:49:46.093Z,8.97
2018-07-06T14:52:14.482Z,8.50
2018-07-06T14:54:42.904Z,6.33
2018-07-06T14:57:11.337Z,11.10
2018-07-06T14:59:39.768Z,10.37
2018-07-06T15:02:08.151Z,8.70
2018-07-06T15:04:36.547Z,8.10
2018-07-06T15:07:04.712Z,6.47
2018-07-06T15:09:33.139Z,10.00
2018-07-06T15:12:01.530Z,8.20
2018-07-06T15:14:29.956Z,6.90
2018-07-06T15:16:59.528Z,10.73
2018-07-06T15:19:28.006Z,7.70
2018-07-06T15:21:56.432Z,4.90
2018-07-06T15:24:24.575Z,6.30
2018-07-06T15:26:53.097Z,5.20
2018-07-06T15:29:21.546Z,13.20
2018-07-06T15:31:50.081Z,7.97
2018-07-06T15:34:18.492Z,4.37
2018-07-06T15:36:46.915Z,8.83
2018-07-06T15:39:15.416Z,9.37
2018-07-06T15:41:43.888Z,7.87
2018-07-06T15:44:12.537Z,6.73
2018-07-06T15:46:40.920Z,4.20
2018-07-06T15:49:09.123Z,4.17
2018-07-06T15:51:37.601Z,7.93
2018-07-06T15:54:06.028Z,10.57
2018-07-06T15:56:34.448Z,8.13
2018-07-06T15:59:02.948Z,10.60
2018-07-06T16:01:31.420Z,5.83
2018-07-06T16:03:59.846Z,7.03
2018-07-06T16:06:28.330Z,5.13
2018-07-06T16:08:56.757Z,8.50
2018-07-06T16:11:25.389Z,7.23
2018-07-06T16:13:53.856Z,5.40
2018-07-06T16:16:22.316Z,4.87
2018-07-06T16:18:50.943Z,6.90
2018-07-06T16:21:19.441Z,6.23
2018-07-06T16:23:47.961Z,7.50
2018-07-06T16:26:16.422Z,5.57
2018-07-06T16:28:44.832Z,4.47
2018-07-06T16:31:13.237Z,4.40
2018-07-06T16:33:41.727Z,5.20
2018-07-06T16:36:10.125Z,5.93
2018-07-06T16:38:38.540Z,8.73
2018-07-06T16:41:07.548Z,10.40
2018-07-06T16:43:35.996Z,5.37
2018-07-06T16:46:04.440Z,4.83
2018-07-06T16:48:32.844Z,5.30
2018-07-06T16:51:01.762Z,5.80
2018-07-06T16:53:30.212Z,8.17
2018-07-06T16:55:58.591Z,5.37
2018-07-06T16:58:27.319Z,5.40
2018-07-06T17:00:55.801Z,5.17
2018-07-06T17:03:24.189Z,7.23
2018-07-06T17:05:52.730Z,5.60
2018-07-06T17:08:21.136Z,5.50
2018-07-06T17:10:49.589Z,6.30
2018-07-06T17:13:17.980Z,8.90
2018-07-06T17:15:46.416Z,6.63
2018-07-06T17:18:14.872Z,4.70
2018-07-06T17:20:43.376Z,5.27
2018-07-06T17:23:11.773Z,11.63
2018-07-06T17:25:40.420Z,9.10
2018-07-06T17:28:08.841Z,4.37
2018-07-06T17:30:37.240Z,6.00
2018-07-06T17:33:05.828Z,5.93
2018-07-06T17:35:34.250Z,7.57
2018-07-06T17:38:02.718Z,6.53
2018-07-06T17:40:31.121Z,4.77
2018-07-06T17:42:59.544Z,5.40
2018-07-06T17:45:28.004Z,10.33
2018-07-06T17:47:56.417Z,7.57
2018-07-06T17:50:24.912Z,6.17
2018-07-06T17:52:53.264Z,5.60
2018-07-06T17:55:21.985Z,10.30
2018-07-06T17:57:50.398Z,6.17
2018-07-06T18:00:18.861Z,9.60
2018-07-06T18:02:47.303Z,6.10
2018-07-06T18:05:15.732Z,7.23
2018-07-06T18:07:44.251Z,12.83
2018-07-06T18:10:12.677Z,5.03
2018-07-06T18:12:41.135Z,5.70
2018-07-06T18:15:09.561Z,6.13
2018-07-06T18:17:38.219Z,9.03
2018-07-06T18:20:06.986Z,4.07
2018-07-06T18:22:35.809Z,5.03
2018-07-06T18:25:04.415Z,8.10
2018-07-06T18:27:32.853Z,8.40
2018-07-06T18:30:01.385Z,6.70
2018-07-06T18:32:30.268Z,10.37
2018-07-06T18:34:58.726Z,5.70
2018-07-06T18:37:27.209Z,7.83
2018-07-06T18:39:55.720Z,6.17
2018-07-06T18:42:24.164Z,7.47
2018-07-06T18:44:52.583Z,6.60
2018-07-06T18:47:21.084Z,11.73
2018-07-06T18:49:49.786Z,8.50
2018-07-06T18:52:18.219Z,4.57
2018-07-06T18:54:46.724Z,7.13
2018-07-06T18:57:15.171Z,11.40
2018-07-06T18:59:43.616Z,7.70
2018-07-06T19:02:12.058Z,12.80
2018-07-06T19:04:40.533Z,5.87
2018-07-06T19:07:09.021Z,6.30
2018-07-06T19:09:37.449Z,6.73
2018-07-06T19:12:05.922Z,4.63
2018-07-06T19:14:34.664Z,10.37
2018-07-06T19:17:03.043Z,5.80
2018-07-06T19:19:31.562Z,6.97
2018-07-06T19:22:00.147Z,7.40
2018-07-06T19:24:28.277Z,6.13
2018-07-06T19:26:56.697Z,5.80
2018-07-06T19:29:25.221Z,7.90
2018-07-06T19:31:53.642Z,7.33
2018-07-06T19:34:21.810Z,13.47
2018-07-06T19:36:50.318Z,6.97
2018-07-06T19:39:18.903Z,6.23
2018-07-06T19:41:47.771Z,10.07
2018-07-06T19:44:17.017Z,5.53
2018-07-06T19:46:45.441Z,5.10
2018-07-06T19:49:14.096Z,5.73
2018-07-06T19:51:42.633Z,6.80
2018-07-06T19:54:11.126Z,9.00
2018-07-06T19:56:39.628Z,7.43
2018-07-06T19:59:08.053Z,5.57
2018-07-06T20:01:36.548Z,7.53
2018-07-06T20:04:05.025Z,7.10
2018-07-06T20:06:33.676Z,7.70
2018-07-06T20:09:02.138Z,11.23
2018-07-06T20:11:30.637Z,9.30
2018-07-06T20:13:59.176Z,11.53
2018-07-06T20:16:27.625Z,8.40
2018-07-06T20:18:56.593Z,8.13
2018-07-06T20:21:25.129Z,10.40
2018-07-06T20:23:53.532Z,5.23
2018-07-06T20:26:22.113Z,7.80
2018-07-06T20:28:50.688Z,4.40
2018-07-06T20:31:19.174Z,6.20
2018-07-06T20:33:47.625Z,15.10
2018-07-06T20:36:16.253Z,6.13
2018-07-06T20:38:44.804Z,3.90
2018-07-06T20:41:13.275Z,5.83
2018-07-06T20:43:41.784Z,5.70
2018-07-06T20:46:10.352Z,6.77
2018-07-06T20:48:38.807Z,5.20
2018-07-06T20:51:07.216Z,8.63
2018-07-06T20:53:35.845Z,11.57
2018-07-06T20:56:04.288Z,13.97
2018-07-06T20:58:32.785Z,8.30
2018-07-06T21:01:01.197Z,6.73
2018-07-06T21:03:29.621Z,8.60
2018-07-06T21:05:58.117Z,9.17
2018-07-06T21:08:26.556Z,8.13
2018-07-06T21:10:55.032Z,6.73
2018-07-06T21:13:23.569Z,8.17
2018-07-06T21:15:51.965Z,6.83
2018-07-06T21:18:20.418Z,9.67
2018-07-06T21:20:48.984Z,9.60
2018-07-06T21:23:17.544Z,6.10
2018-07-06T21:25:45.961Z,8.33
2018-07-06T21:28:14.569Z,12.87
2018-07-06T21:30:43.133Z,6.70
2018-07-06T21:33:11.557Z,6.80
2018-07-06T21:35:40.017Z,11.63
2018-07-06T21:38:08.501Z,5.77
2018-07-06T21:40:37.151Z,7.87
2018-07-06T21:43:05.573Z,17.27
2018-07-06T21:45:34.236Z,9.33
2018-07-06T21:48:02.923Z,4.33
2018-07-06T21:50:31.273Z,8.70
2018-07-06T21:52:59.986Z,11.03
2018-07-06T21:55:28.161Z,6.23
2018-07-06T21:57:56.538Z,6.87
2018-07-06T22:00:33.477Z,9.17
2018-07-06T22:03:02.056Z,10.20
2018-07-06T22:05:30.538Z,6.00
2018-07-06T22:07:58.920Z,4.50
2018-07-06T22:10:27.521Z,6.70
2018-07-06T22:12:55.932Z,5.60
2018-07-06T22:15:28.893Z,5.27
2018-07-06T22:17:57.546Z,5.80
2018-07-06T22:20:25.921Z,7.43
2018-07-06T22:22:54.488Z,6.53
2018-07-06T22:25:22.924Z,9.97
2018-07-06T22:27:51.064Z,7.53
2018-07-06T22:30:19.528Z,12.50
2018-07-06T22:32:48.139Z,5.63
2018-07-06T22:35:16.785Z,7.13
2018-07-06T22:37:45.908Z,9.13
2018-07-06T22:40:15.917Z,12.73
2018-07-06T22:42:44.685Z,15.97
2018-07-06T22:45:13.687Z,9.20
2018-07-06T22:47:42.198Z,8.00
2018-07-06T22:50:11.164Z,4.33
2018-07-06T22:52:39.579Z,10.60
2018-07-06T22:55:08.224Z,6.70
2018-07-06T22:57:36.809Z,12.87
2018-07-06T23:00:05.247Z,11.53
2018-07-06T23:02:33.964Z,7.40
2018-07-06T23:05:15.524Z,8.10
2018-07-06T23:07:43.941Z,8.67
2018-07-06T23:10:12.756Z,6.20
2018-07-06T23:12:41.524Z,6.07
2018-07-06T23:15:09.934Z,7.80
2018-07-06T23:17:38.377Z,8.90
2018-07-06T23:20:07.373Z,8.77
2018-07-06T23:23:18.694Z,7.23
2018-07-06T23:25:48.356Z,8.70
2018-07-06T23:28:17.162Z,11.17
2018-07-06T23:30:45.629Z,8.33
2018-07-06T23:33:14.210Z,9.07
2018-07-06T23:35:42.632Z,5.00
2018-07-06T23:38:10.823Z,8.57
2018-07-06T23:40:39.465Z,13.90
2018-07-06T23:43:07.869Z,9.80
2018-07-06T23:45:36.481Z,8.83
2018-07-06T23:48:04.980Z,8.00
2018-07-06T23:50:33.397Z,15.80
2018-07-06T23:53:01.832Z,12.23
2018-07-06T23:55:30.488Z,12.23
2018-07-06T23:57:58.868Z,6.60
